DAL693 SCDA-SACO
Flight info
| Callsign | DAL693 |
|---|---|
| Flight time | 1h 44m |
| Altitude | 41000 |
| Route | AKNUV UM789 LOA UL550 TUC UW5 DONKA DONKA1Q |
| Aircraft | A359/H-SDE2E3GHIJ3J4J5LM1ORWXY/LB1D1 |
Departure
| Time | 2026-05-03 22:11 |
|---|---|
| Airport | Diego Aracena International Airport (SCDA) |
Arrival
| Time | 2026-05-03 23:55 |
|---|---|
| Airport | Ingeniero Aeronáutico Ambrosio L.V. Taravella International Airport (SACO) |
| Time | Latitude | Longitude | Altitude | Speed | Heading |
|---|---|---|---|---|---|
| 2026-05-03 21:45 | -20.54695 | -70.17930 | 157 ft | 0 kts | 46° |
| 2026-05-03 22:03 | -20.54697 | -70.17932 | 157 ft | 2 kts | 46° |
| 2026-05-03 22:03 | -20.54710 | -70.17948 | 157 ft | 3 kts | 59° |
| 2026-05-03 22:04 | -20.54719 | -70.17967 | 157 ft | 3 kts | 76° |
| 2026-05-03 22:04 | -20.54722 | -70.17988 | 157 ft | 3 kts | 90° |
| 2026-05-03 22:04 | -20.54721 | -70.18000 | 157 ft | 1 kts | 94° |
| 2026-05-03 22:05 | -20.54721 | -70.18001 | 157 ft | 0 kts | 94° |
| 2026-05-03 22:07 | -20.54722 | -70.17999 | 157 ft | 1 kts | 101° |
| 2026-05-03 22:08 | -20.54730 | -70.17991 | 157 ft | 5 kts | 138° |
| 2026-05-03 22:08 | -20.54763 | -70.17998 | 158 ft | 5 kts | 204° |
| 2026-05-03 22:08 | -20.54805 | -70.18015 | 159 ft | 7 kts | 196° |
| 2026-05-03 22:08 | -20.54861 | -70.18025 | 160 ft | 9 kts | 184° |
| 2026-05-03 22:09 | -20.54929 | -70.18030 | 161 ft | 11 kts | 184° |
| 2026-05-03 22:09 | -20.55001 | -70.18047 | 166 ft | 9 kts | 213° |
| 2026-05-03 22:09 | -20.55023 | -70.18115 | 163 ft | 11 kts | 266° |
| 2026-05-03 22:10 | -20.54928 | -70.18204 | 162 ft | 14 kts | 1° |
| 2026-05-03 22:10 | -20.54599 | -70.18187 | 156 ft | 87 kts | 2° |
| 2026-05-03 22:10 | -20.53755 | -70.18142 | 138 ft | 154 kts | 3° |
| 2026-05-03 22:10 | -20.52547 | -70.18095 | 532 ft | 180 kts | 359° |
| 2026-05-03 22:11 | -20.51319 | -70.18062 | 1539 ft | 173 kts | 360° |
| 2026-05-03 22:11 | -20.50149 | -70.18015 | 2582 ft | 165 kts | 0° |
| 2026-05-03 22:11 | -20.48991 | -70.17962 | 3217 ft | 164 kts | 1° |
| 2026-05-03 22:11 | -20.47835 | -70.17885 | 3668 ft | 169 kts | 6° |
| 2026-05-03 22:12 | -20.46742 | -70.17323 | 3915 ft | 188 kts | 44° |
| 2026-05-03 22:12 | -20.46142 | -70.16024 | 4132 ft | 209 kts | 81° |
| 2026-05-03 22:12 | -20.46366 | -70.14438 | 4326 ft | 231 kts | 115° |
| 2026-05-03 22:12 | -20.47442 | -70.13087 | 4574 ft | 252 kts | 146° |
| 2026-05-03 22:13 | -20.49034 | -70.12184 | 4917 ft | 267 kts | 155° |
| 2026-05-03 22:13 | -20.50737 | -70.11323 | 5431 ft | 274 kts | 154° |
| 2026-05-03 22:13 | -20.52459 | -70.10428 | 6016 ft | 277 kts | 153° |
| 2026-05-03 22:13 | -20.54195 | -70.09527 | 6622 ft | 278 kts | 153° |
| 2026-05-03 22:14 | -20.55936 | -70.08632 | 7273 ft | 277 kts | 154° |
| 2026-05-03 22:14 | -20.57684 | -70.07745 | 7832 ft | 279 kts | 155° |
| 2026-05-03 22:14 | -20.59445 | -70.06861 | 8449 ft | 280 kts | 155° |
| 2026-05-03 22:14 | -20.61214 | -70.05977 | 8995 ft | 282 kts | 155° |
| 2026-05-03 22:15 | -20.62998 | -70.05089 | 9588 ft | 283 kts | 155° |
| 2026-05-03 22:15 | -20.64781 | -70.04200 | 10151 ft | 284 kts | 155° |
| 2026-05-03 22:15 | -20.66611 | -70.03289 | 10404 ft | 296 kts | 155° |
| 2026-05-03 22:15 | -20.68522 | -70.02336 | 10604 ft | 309 kts | 155° |
| 2026-05-03 22:16 | -20.70481 | -70.01360 | 10798 ft | 321 kts | 155° |
| 2026-05-03 22:16 | -20.72542 | -70.00331 | 10988 ft | 333 kts | 155° |
| 2026-05-03 22:16 | -20.74671 | -69.99268 | 11161 ft | 343 kts | 155° |
| 2026-05-03 22:16 | -20.76860 | -69.98174 | 11371 ft | 351 kts | 155° |
| 2026-05-03 22:17 | -20.79088 | -69.97060 | 11689 ft | 355 kts | 155° |
| 2026-05-03 22:17 | -20.81332 | -69.95937 | 12042 ft | 358 kts | 155° |
| 2026-05-03 22:17 | -20.83593 | -69.94806 | 12414 ft | 360 kts | 155° |
| 2026-05-03 22:17 | -20.85868 | -69.93668 | 12781 ft | 363 kts | 155° |
| 2026-05-03 22:18 | -20.88170 | -69.92516 | 13278 ft | 367 kts | 155° |
| 2026-05-03 22:18 | -20.90496 | -69.91351 | 13840 ft | 371 kts | 156° |
| 2026-05-03 22:18 | -20.92843 | -69.90176 | 14315 ft | 374 kts | 155° |
| 2026-05-03 22:18 | -20.95216 | -69.88987 | 14796 ft | 378 kts | 155° |
| 2026-05-03 22:19 | -20.97608 | -69.87788 | 15288 ft | 382 kts | 155° |
| 2026-05-03 22:19 | -21.00025 | -69.86576 | 15781 ft | 386 kts | 155° |
| 2026-05-03 22:19 | -21.02463 | -69.85353 | 16343 ft | 387 kts | 155° |
| 2026-05-03 22:19 | -21.04908 | -69.84126 | 16864 ft | 391 kts | 155° |
| 2026-05-03 22:20 | -21.07387 | -69.82882 | 17354 ft | 395 kts | 156° |
| 2026-05-03 22:20 | -21.09881 | -69.81630 | 17944 ft | 397 kts | 156° |
| 2026-05-03 22:20 | -21.11539 | -69.80796 | 18289 ft | 400 kts | 155° |
| 2026-05-03 22:20 | -21.14082 | -69.79518 | 18653 ft | 406 kts | 155° |
| 2026-05-03 22:21 | -21.16649 | -69.78209 | 19089 ft | 411 kts | 154° |
| 2026-05-03 22:21 | -21.19153 | -69.76705 | 19536 ft | 415 kts | 150° |
| 2026-05-03 22:21 | -21.22451 | -69.74579 | 20159 ft | 420 kts | 149° |
| 2026-05-03 22:21 | -21.24943 | -69.72917 | 20636 ft | 424 kts | 149° |
| 2026-05-03 22:22 | -21.26633 | -69.71776 | 20952 ft | 427 kts | 149° |
| 2026-05-03 22:22 | -21.29159 | -69.70062 | 21402 ft | 432 kts | 149° |
| 2026-05-03 22:22 | -21.31716 | -69.68325 | 21825 ft | 438 kts | 149° |
| 2026-05-03 22:22 | -21.34296 | -69.66576 | 22345 ft | 441 kts | 149° |
| 2026-05-03 22:23 | -21.36895 | -69.64818 | 22871 ft | 443 kts | 149° |
| 2026-05-03 22:23 | -21.39519 | -69.63040 | 23258 ft | 449 kts | 149° |
| 2026-05-03 22:23 | -21.42166 | -69.61251 | 23788 ft | 450 kts | 149° |
| 2026-05-03 22:23 | -21.44829 | -69.59452 | 24154 ft | 455 kts | 149° |
| 2026-05-03 22:24 | -21.47510 | -69.57640 | 24635 ft | 457 kts | 149° |
| 2026-05-03 22:24 | -21.50216 | -69.55810 | 25097 ft | 460 kts | 149° |
| 2026-05-03 22:24 | -21.52930 | -69.53974 | 25667 ft | 462 kts | 149° |
| 2026-05-03 22:24 | -21.55658 | -69.52128 | 26147 ft | 465 kts | 149° |
| 2026-05-03 22:25 | -21.58374 | -69.50290 | 26634 ft | 469 kts | 149° |
| 2026-05-03 22:25 | -21.61183 | -69.48387 | 27132 ft | 473 kts | 149° |
| 2026-05-03 22:25 | -21.63976 | -69.46495 | 27643 ft | 476 kts | 149° |
| 2026-05-03 22:25 | -21.66788 | -69.44588 | 28108 ft | 480 kts | 149° |
| 2026-05-03 22:26 | -21.69586 | -69.42690 | 28598 ft | 483 kts | 149° |
| 2026-05-03 22:26 | -21.72438 | -69.40754 | 29084 ft | 487 kts | 149° |
| 2026-05-03 22:26 | -21.75314 | -69.38801 | 29564 ft | 490 kts | 149° |
| 2026-05-03 22:26 | -21.78210 | -69.36833 | 29988 ft | 495 kts | 149° |
| 2026-05-03 22:27 | -21.81137 | -69.34846 | 30295 ft | 500 kts | 149° |
| 2026-05-03 22:27 | -21.84088 | -69.32841 | 30678 ft | 503 kts | 149° |
| 2026-05-03 22:27 | -21.87052 | -69.30822 | 31074 ft | 506 kts | 149° |
| 2026-05-03 22:27 | -21.90032 | -69.28790 | 31446 ft | 508 kts | 150° |
| 2026-05-03 22:28 | -21.93026 | -69.26747 | 31815 ft | 511 kts | 150° |
| 2026-05-03 22:28 | -21.96040 | -69.24690 | 32175 ft | 514 kts | 150° |
| 2026-05-03 22:28 | -21.99068 | -69.22623 | 32514 ft | 517 kts | 150° |
| 2026-05-03 22:28 | -22.02113 | -69.20544 | 32842 ft | 519 kts | 150° |
| 2026-05-03 22:29 | -22.05169 | -69.18456 | 33198 ft | 521 kts | 150° |
| 2026-05-03 22:29 | -22.08221 | -69.16369 | 33720 ft | 519 kts | 151° |
| 2026-05-03 22:29 | -22.11263 | -69.14286 | 34176 ft | 517 kts | 151° |
| 2026-05-03 22:29 | -22.14300 | -69.12208 | 34517 ft | 518 kts | 151° |
| 2026-05-03 22:30 | -22.17351 | -69.10120 | 34808 ft | 520 kts | 151° |
| 2026-05-03 22:30 | -22.20407 | -69.08027 | 35102 ft | 521 kts | 152° |
| 2026-05-03 22:30 | -22.23470 | -69.05929 | 35393 ft | 522 kts | 152° |
| 2026-05-03 22:30 | -22.26537 | -69.03827 | 35706 ft | 523 kts | 152° |
| 2026-05-03 22:31 | -22.29611 | -69.01718 | 35998 ft | 524 kts | 152° |
| 2026-05-03 22:31 | -22.32688 | -68.99606 | 36310 ft | 524 kts | 152° |
| 2026-05-03 22:31 | -22.35768 | -68.97491 | 36591 ft | 525 kts | 152° |
| 2026-05-03 22:31 | -22.38856 | -68.95369 | 36845 ft | 527 kts | 152° |
| 2026-05-03 22:32 | -22.41953 | -68.93241 | 37124 ft | 527 kts | 152° |
| 2026-05-03 22:32 | -22.45048 | -68.91112 | 37400 ft | 528 kts | 153° |
| 2026-05-03 22:32 | -22.48148 | -68.88979 | 37669 ft | 529 kts | 153° |
| 2026-05-03 22:32 | -22.51256 | -68.86834 | 38273 ft | 530 kts | 153° |
| 2026-05-03 22:33 | -22.54293 | -68.84548 | 38531 ft | 533 kts | 148° |
| 2026-05-03 22:33 | -22.57255 | -68.82113 | 38789 ft | 535 kts | 147° |
| 2026-05-03 22:33 | -22.60183 | -68.79623 | 38972 ft | 536 kts | 147° |
| 2026-05-03 22:33 | -22.63113 | -68.77121 | 39160 ft | 536 kts | 147° |
| 2026-05-03 22:34 | -22.66049 | -68.74637 | 39352 ft | 535 kts | 147° |
| 2026-05-03 22:34 | -22.68993 | -68.72173 | 39540 ft | 534 kts | 148° |
| 2026-05-03 22:34 | -22.71942 | -68.69727 | 39717 ft | 534 kts | 148° |
| 2026-05-03 22:34 | -22.74894 | -68.67293 | 39905 ft | 533 kts | 148° |
| 2026-05-03 22:35 | -22.77845 | -68.64867 | 40075 ft | 533 kts | 148° |
| 2026-05-03 22:35 | -22.80801 | -68.62438 | 40290 ft | 533 kts | 148° |
| 2026-05-03 22:35 | -22.83752 | -68.60013 | 40502 ft | 532 kts | 148° |
| 2026-05-03 22:35 | -22.86660 | -68.57620 | 40694 ft | 532 kts | 148° |
| 2026-05-03 22:36 | -22.89648 | -68.55160 | 40893 ft | 532 kts | 148° |
| 2026-05-03 22:36 | -22.95499 | -68.50334 | 40947 ft | 531 kts | 148° |
| 2026-05-03 22:37 | -23.01387 | -68.45478 | 40898 ft | 531 kts | 148° |
| 2026-05-03 22:37 | -23.07268 | -68.40612 | 40904 ft | 531 kts | 148° |
| 2026-05-03 22:38 | -23.13146 | -68.35744 | 40887 ft | 531 kts | 148° |
| 2026-05-03 22:38 | -23.19019 | -68.30874 | 40911 ft | 531 kts | 148° |
| 2026-05-03 22:39 | -23.24893 | -68.26001 | 40897 ft | 531 kts | 148° |
| 2026-05-03 22:39 | -23.30764 | -68.21124 | 40900 ft | 531 kts | 148° |
| 2026-05-03 22:40 | -23.36632 | -68.16244 | 40948 ft | 531 kts | 148° |
| 2026-05-03 22:40 | -23.42493 | -68.11364 | 40995 ft | 530 kts | 148° |
| 2026-05-03 22:41 | -23.48350 | -68.06482 | 40975 ft | 530 kts | 148° |
| 2026-05-03 22:41 | -23.54204 | -68.01598 | 40974 ft | 530 kts | 148° |
| 2026-05-03 22:42 | -23.60055 | -67.96710 | 40961 ft | 530 kts | 148° |
| 2026-05-03 22:42 | -23.65904 | -67.91818 | 41061 ft | 530 kts | 148° |
| 2026-05-03 22:43 | -23.71756 | -67.86919 | 41068 ft | 530 kts | 148° |
| 2026-05-03 22:43 | -23.77605 | -67.82015 | 41088 ft | 530 kts | 148° |
| 2026-05-03 22:44 | -23.83450 | -67.77109 | 41151 ft | 530 kts | 148° |
| 2026-05-03 22:44 | -23.89288 | -67.72203 | 41148 ft | 530 kts | 148° |
| 2026-05-03 22:45 | -23.95120 | -67.67296 | 41200 ft | 529 kts | 148° |
| 2026-05-03 22:45 | -24.00948 | -67.62388 | 41181 ft | 528 kts | 149° |
| 2026-05-03 22:46 | -24.06755 | -67.57485 | 41161 ft | 527 kts | 148° |
| 2026-05-03 22:46 | -24.12569 | -67.52581 | 41158 ft | 528 kts | 148° |
| 2026-05-03 22:47 | -24.18361 | -67.47612 | 41124 ft | 530 kts | 148° |
| 2026-05-03 22:47 | -24.24137 | -67.42593 | 41142 ft | 529 kts | 147° |
| 2026-05-03 22:48 | -24.29853 | -67.37624 | 41087 ft | 529 kts | 148° |
| 2026-05-03 22:48 | -24.35625 | -67.32623 | 41088 ft | 528 kts | 148° |
| 2026-05-03 22:49 | -24.41395 | -67.27621 | 41071 ft | 529 kts | 148° |
| 2026-05-03 22:49 | -24.47172 | -67.22603 | 41069 ft | 530 kts | 148° |
| 2026-05-03 22:50 | -24.52952 | -67.17576 | 41057 ft | 530 kts | 148° |
| 2026-05-03 22:50 | -24.58735 | -67.12539 | 41067 ft | 530 kts | 148° |
| 2026-05-03 22:51 | -24.64512 | -67.07502 | 41064 ft | 530 kts | 148° |
| 2026-05-03 22:51 | -24.70285 | -67.02463 | 41067 ft | 530 kts | 148° |
| 2026-05-03 22:52 | -24.76059 | -66.97417 | 41076 ft | 530 kts | 148° |
| 2026-05-03 22:52 | -24.81825 | -66.92371 | 41081 ft | 529 kts | 148° |
| 2026-05-03 22:53 | -24.87584 | -66.87327 | 41092 ft | 529 kts | 148° |
| 2026-05-03 22:53 | -24.93340 | -66.82280 | 41086 ft | 529 kts | 148° |
| 2026-05-03 22:54 | -24.99096 | -66.77227 | 41104 ft | 529 kts | 148° |
| 2026-05-03 22:54 | -25.04847 | -66.72168 | 41106 ft | 529 kts | 148° |
| 2026-05-03 22:55 | -25.10600 | -66.67103 | 41091 ft | 529 kts | 148° |
| 2026-05-03 22:55 | -25.16358 | -66.62028 | 41083 ft | 530 kts | 148° |
| 2026-05-03 22:56 | -25.22140 | -66.56927 | 41107 ft | 532 kts | 148° |
| 2026-05-03 22:56 | -25.27901 | -66.51830 | 41055 ft | 529 kts | 149° |
| 2026-05-03 22:57 | -25.33636 | -66.46755 | 41025 ft | 529 kts | 149° |
| 2026-05-03 22:57 | -25.39379 | -66.41670 | 41022 ft | 528 kts | 148° |
| 2026-05-03 22:58 | -25.45108 | -66.36587 | 41000 ft | 527 kts | 148° |
| 2026-05-03 22:58 | -25.50781 | -66.31551 | 40989 ft | 527 kts | 149° |
| 2026-05-03 22:59 | -25.56486 | -66.26474 | 40994 ft | 527 kts | 149° |
| 2026-05-03 22:59 | -25.62205 | -66.21383 | 40984 ft | 528 kts | 149° |
| 2026-05-03 23:00 | -25.67932 | -66.16280 | 41008 ft | 528 kts | 149° |
| 2026-05-03 23:00 | -25.73650 | -66.11176 | 41018 ft | 527 kts | 149° |
| 2026-05-03 23:01 | -25.79346 | -66.06084 | 41012 ft | 525 kts | 149° |
| 2026-05-03 23:01 | -25.85033 | -66.00997 | 41009 ft | 525 kts | 149° |
| 2026-05-03 23:02 | -25.90711 | -65.95913 | 41020 ft | 525 kts | 149° |
| 2026-05-03 23:02 | -25.96394 | -65.90820 | 41034 ft | 524 kts | 149° |
| 2026-05-03 23:03 | -26.02060 | -65.85732 | 41020 ft | 523 kts | 149° |
| 2026-05-03 23:03 | -26.07721 | -65.80640 | 41022 ft | 523 kts | 149° |
| 2026-05-03 23:04 | -26.13376 | -65.75549 | 41014 ft | 523 kts | 149° |
| 2026-05-03 23:04 | -26.19028 | -65.70457 | 41023 ft | 523 kts | 149° |
| 2026-05-03 23:05 | -26.24695 | -65.65339 | 41013 ft | 526 kts | 149° |
| 2026-05-03 23:05 | -26.30373 | -65.60206 | 41011 ft | 524 kts | 149° |
| 2026-05-03 23:06 | -26.36026 | -65.55084 | 40995 ft | 523 kts | 149° |
| 2026-05-03 23:06 | -26.41634 | -65.50000 | 40999 ft | 523 kts | 149° |
| 2026-05-03 23:07 | -26.47282 | -65.44875 | 41005 ft | 523 kts | 149° |
| 2026-05-03 23:07 | -26.52931 | -65.39741 | 41002 ft | 523 kts | 149° |
| 2026-05-03 23:08 | -26.58573 | -65.34606 | 41008 ft | 523 kts | 149° |
| 2026-05-03 23:08 | -26.63297 | -65.30301 | 41004 ft | 523 kts | 149° |
| 2026-05-03 23:09 | -26.68934 | -65.25160 | 41012 ft | 523 kts | 149° |
| 2026-05-03 23:09 | -26.74540 | -65.20041 | 40994 ft | 524 kts | 149° |
| 2026-05-03 23:10 | -26.80198 | -65.14888 | 40995 ft | 522 kts | 151° |
| 2026-05-03 23:10 | -26.83183 | -65.12657 | 40993 ft | 511 kts | 160° |
| 2026-05-03 23:10 | -26.86354 | -65.10988 | 40993 ft | 497 kts | 169° |
| 2026-05-03 23:10 | -26.89629 | -65.09924 | 40996 ft | 486 kts | 177° |
| 2026-05-03 23:11 | -26.92929 | -65.09148 | 41018 ft | 483 kts | 179° |
| 2026-05-03 23:11 | -26.99541 | -65.07847 | 40986 ft | 482 kts | 180° |
| 2026-05-03 23:12 | -27.06167 | -65.06616 | 40987 ft | 483 kts | 180° |
| 2026-05-03 23:12 | -27.12795 | -65.05355 | 40985 ft | 483 kts | 180° |
| 2026-05-03 23:13 | -27.19420 | -65.04067 | 41012 ft | 483 kts | 180° |
| 2026-05-03 23:13 | -27.26029 | -65.02770 | 40975 ft | 481 kts | 180° |
| 2026-05-03 23:14 | -27.32616 | -65.01479 | 40975 ft | 480 kts | 180° |
| 2026-05-03 23:14 | -27.39200 | -65.00189 | 40976 ft | 480 kts | 180° |
| 2026-05-03 23:15 | -27.45786 | -64.98898 | 40996 ft | 480 kts | 180° |
| 2026-05-03 23:15 | -27.52357 | -64.97606 | 40966 ft | 479 kts | 180° |
| 2026-05-03 23:16 | -27.58910 | -64.96317 | 40968 ft | 478 kts | 180° |
| 2026-05-03 23:16 | -27.65456 | -64.95029 | 40970 ft | 477 kts | 180° |
| 2026-05-03 23:17 | -27.71999 | -64.93740 | 40995 ft | 477 kts | 180° |
| 2026-05-03 23:17 | -27.78543 | -64.92468 | 40976 ft | 477 kts | 180° |
| 2026-05-03 23:18 | -27.85092 | -64.91266 | 40979 ft | 477 kts | 181° |
| 2026-05-03 23:18 | -27.91644 | -64.90073 | 40980 ft | 477 kts | 181° |
| 2026-05-03 23:19 | -27.98194 | -64.88869 | 40995 ft | 477 kts | 180° |
| 2026-05-03 23:19 | -28.04742 | -64.87657 | 40974 ft | 477 kts | 180° |
| 2026-05-03 23:20 | -28.11289 | -64.86443 | 40971 ft | 477 kts | 180° |
| 2026-05-03 23:20 | -28.17836 | -64.85228 | 40972 ft | 477 kts | 180° |
| 2026-05-03 23:21 | -28.24384 | -64.84011 | 41000 ft | 477 kts | 180° |
| 2026-05-03 23:21 | -28.30918 | -64.82794 | 40962 ft | 475 kts | 180° |
| 2026-05-03 23:22 | -28.40639 | -64.80983 | 40959 ft | 474 kts | 180° |
| 2026-05-03 23:22 | -28.47200 | -64.79760 | 40959 ft | 474 kts | 180° |
| 2026-05-03 23:23 | -28.53710 | -64.78545 | 40951 ft | 474 kts | 180° |
| 2026-05-03 23:23 | -28.60214 | -64.77327 | 40953 ft | 473 kts | 180° |
| 2026-05-03 23:24 | -28.66703 | -64.76090 | 40953 ft | 474 kts | 180° |
| 2026-05-03 23:24 | -28.73209 | -64.74682 | 40950 ft | 476 kts | 179° |
| 2026-05-03 23:25 | -28.79662 | -64.73249 | 40955 ft | 475 kts | 179° |
| 2026-05-03 23:25 | -28.86159 | -64.71828 | 40953 ft | 475 kts | 179° |
| 2026-05-03 23:26 | -28.92054 | -64.70553 | 40949 ft | 475 kts | 179° |
| 2026-05-03 23:26 | -28.98527 | -64.69156 | 40949 ft | 475 kts | 179° |
| 2026-05-03 23:27 | -29.05026 | -64.67750 | 40948 ft | 474 kts | 179° |
| 2026-05-03 23:27 | -29.11504 | -64.66345 | 40946 ft | 474 kts | 179° |
| 2026-05-03 23:28 | -29.17977 | -64.64941 | 40947 ft | 473 kts | 179° |
| 2026-05-03 23:28 | -29.24451 | -64.63535 | 40949 ft | 474 kts | 179° |
| 2026-05-03 23:29 | -29.30918 | -64.62127 | 40952 ft | 472 kts | 179° |
| 2026-05-03 23:29 | -29.37371 | -64.60721 | 40950 ft | 472 kts | 179° |
| 2026-05-03 23:30 | -29.43821 | -64.59315 | 40955 ft | 472 kts | 179° |
| 2026-05-03 23:30 | -29.50271 | -64.57907 | 40958 ft | 472 kts | 179° |
| 2026-05-03 23:31 | -29.56718 | -64.56498 | 40959 ft | 472 kts | 179° |
| 2026-05-03 23:31 | -29.63161 | -64.55117 | 40958 ft | 470 kts | 180° |
| 2026-05-03 23:32 | -29.69608 | -64.53906 | 40957 ft | 469 kts | 181° |
| 2026-05-03 23:32 | -29.76007 | -64.52738 | 40994 ft | 469 kts | 181° |
| 2026-05-03 23:33 | -29.82450 | -64.51537 | 40958 ft | 469 kts | 181° |
| 2026-05-03 23:33 | -29.88893 | -64.50318 | 40961 ft | 469 kts | 181° |
| 2026-05-03 23:34 | -29.95336 | -64.49091 | 40955 ft | 468 kts | 181° |
| 2026-05-03 23:34 | -29.98531 | -64.48429 | 40442 ft | 466 kts | 179° |
| 2026-05-03 23:34 | -30.01729 | -64.47738 | 39703 ft | 469 kts | 179° |
| 2026-05-03 23:35 | -30.04944 | -64.47044 | 38952 ft | 471 kts | 179° |
| 2026-05-03 23:35 | -30.08172 | -64.46350 | 38161 ft | 472 kts | 179° |
| 2026-05-03 23:35 | -30.11217 | -64.45697 | 37292 ft | 472 kts | 179° |
| 2026-05-03 23:35 | -30.14437 | -64.45006 | 35931 ft | 471 kts | 178° |
| 2026-05-03 23:36 | -30.17685 | -64.44314 | 34408 ft | 477 kts | 177° |
| 2026-05-03 23:36 | -30.20966 | -64.43616 | 32750 ft | 482 kts | 176° |
| 2026-05-03 23:36 | -30.24320 | -64.42904 | 31331 ft | 500 kts | 176° |
| 2026-05-03 23:36 | -30.27768 | -64.42168 | 30718 ft | 505 kts | 176° |
| 2026-05-03 23:37 | -30.31214 | -64.41425 | 30299 ft | 503 kts | 176° |
| 2026-05-03 23:37 | -30.34660 | -64.40683 | 29802 ft | 503 kts | 176° |
| 2026-05-03 23:37 | -30.38094 | -64.39908 | 29295 ft | 505 kts | 173° |
| 2026-05-03 23:37 | -30.41422 | -64.38553 | 28740 ft | 506 kts | 160° |
| 2026-05-03 23:38 | -30.44382 | -64.36417 | 27612 ft | 499 kts | 150° |
| 2026-05-03 23:38 | -30.47135 | -64.33971 | 26100 ft | 499 kts | 148° |
| 2026-05-03 23:38 | -30.49845 | -64.31489 | 24875 ft | 494 kts | 147° |
| 2026-05-03 23:38 | -30.52526 | -64.29046 | 23713 ft | 486 kts | 148° |
| 2026-05-03 23:39 | -30.55169 | -64.26654 | 22457 ft | 477 kts | 147° |
| 2026-05-03 23:39 | -30.57828 | -64.24446 | 21374 ft | 460 kts | 155° |
| 2026-05-03 23:39 | -30.60666 | -64.23051 | 20690 ft | 428 kts | 171° |
| 2026-05-03 23:39 | -30.63538 | -64.22577 | 20099 ft | 412 kts | 182° |
| 2026-05-03 23:40 | -30.66374 | -64.22442 | 19505 ft | 406 kts | 183° |
| 2026-05-03 23:40 | -30.69182 | -64.22354 | 18921 ft | 401 kts | 183° |
| 2026-05-03 23:40 | -30.71960 | -64.22269 | 18329 ft | 398 kts | 183° |
| 2026-05-03 23:40 | -30.74675 | -64.22181 | 17689 ft | 394 kts | 183° |
| 2026-05-03 23:41 | -30.77430 | -64.22089 | 17077 ft | 389 kts | 183° |
| 2026-05-03 23:41 | -30.80096 | -64.21998 | 16481 ft | 386 kts | 182° |
| 2026-05-03 23:41 | -30.82771 | -64.21906 | 15894 ft | 384 kts | 182° |
| 2026-05-03 23:41 | -30.85431 | -64.21814 | 15308 ft | 381 kts | 182° |
| 2026-05-03 23:42 | -30.88070 | -64.21722 | 14708 ft | 378 kts | 182° |
| 2026-05-03 23:42 | -30.90692 | -64.21630 | 14108 ft | 376 kts | 182° |
| 2026-05-03 23:42 | -30.93293 | -64.21540 | 13486 ft | 373 kts | 182° |
| 2026-05-03 23:42 | -30.95877 | -64.21422 | 12868 ft | 371 kts | 179° |
| 2026-05-03 23:43 | -30.98394 | -64.20850 | 12253 ft | 381 kts | 164° |
| 2026-05-03 23:43 | -31.00800 | -64.19438 | 11727 ft | 379 kts | 150° |
| 2026-05-03 23:43 | -31.02965 | -64.17814 | 11590 ft | 361 kts | 149° |
| 2026-05-03 23:43 | -31.05021 | -64.16252 | 11461 ft | 344 kts | 150° |
| 2026-05-03 23:44 | -31.06982 | -64.14766 | 11340 ft | 328 kts | 150° |
| 2026-05-03 23:44 | -31.08858 | -64.13351 | 11217 ft | 314 kts | 150° |
| 2026-05-03 23:44 | -31.10654 | -64.11998 | 11087 ft | 301 kts | 150° |
| 2026-05-03 23:44 | -31.12376 | -64.10703 | 10962 ft | 289 kts | 150° |
| 2026-05-03 23:45 | -31.14051 | -64.09444 | 10725 ft | 285 kts | 150° |
| 2026-05-03 23:45 | -31.15711 | -64.08199 | 10387 ft | 283 kts | 150° |
| 2026-05-03 23:45 | -31.17364 | -64.06958 | 10060 ft | 282 kts | 150° |
| 2026-05-03 23:45 | -31.19028 | -64.05709 | 9736 ft | 291 kts | 150° |
| 2026-05-03 23:46 | -31.20765 | -64.04407 | 9554 ft | 300 kts | 149° |
| 2026-05-03 23:46 | -31.22520 | -64.03086 | 9119 ft | 301 kts | 149° |
| 2026-05-03 23:46 | -31.24282 | -64.01760 | 8644 ft | 301 kts | 148° |
| 2026-05-03 23:46 | -31.26044 | -64.00432 | 8250 ft | 302 kts | 148° |
| 2026-05-03 23:47 | -31.27811 | -63.99100 | 7881 ft | 302 kts | 148° |
| 2026-05-03 23:47 | -31.29574 | -63.97770 | 7516 ft | 302 kts | 147° |
| 2026-05-03 23:47 | -31.31373 | -63.96505 | 7153 ft | 302 kts | 155° |
| 2026-05-03 23:47 | -31.33389 | -63.95904 | 6789 ft | 300 kts | 178° |
| 2026-05-03 23:48 | -31.35470 | -63.95842 | 6407 ft | 299 kts | 182° |
| 2026-05-03 23:48 | -31.37555 | -63.95864 | 6007 ft | 300 kts | 182° |
| 2026-05-03 23:48 | -31.39601 | -63.95884 | 5736 ft | 294 kts | 182° |
| 2026-05-03 23:48 | -31.41551 | -63.96232 | 5597 ft | 275 kts | 207° |
| 2026-05-03 23:49 | -31.42953 | -63.97533 | 5473 ft | 248 kts | 242° |
| 2026-05-03 23:49 | -31.43502 | -63.99346 | 5276 ft | 233 kts | 270° |
| 2026-05-03 23:49 | -31.43563 | -64.01221 | 5029 ft | 229 kts | 276° |
| 2026-05-03 23:49 | -31.43544 | -64.03085 | 4783 ft | 229 kts | 277° |
| 2026-05-03 23:50 | -31.43523 | -64.04954 | 4472 ft | 229 kts | 277° |
| 2026-05-03 23:50 | -31.43515 | -64.06203 | 4346 ft | 224 kts | 275° |
| 2026-05-03 23:50 | -31.43508 | -64.08552 | 4162 ft | 212 kts | 274° |
| 2026-05-03 23:50 | -31.43505 | -64.10242 | 4008 ft | 203 kts | 274° |
| 2026-05-03 23:51 | -31.43505 | -64.11841 | 3853 ft | 191 kts | 275° |
| 2026-05-03 23:51 | -31.43502 | -64.13390 | 3576 ft | 190 kts | 275° |
| 2026-05-03 23:51 | -31.43485 | -64.14937 | 3501 ft | 190 kts | 278° |
| 2026-05-03 23:51 | -31.43134 | -64.16381 | 3500 ft | 182 kts | 306° |
| 2026-05-03 23:52 | -31.42233 | -64.17369 | 3503 ft | 177 kts | 329° |
| 2026-05-03 23:52 | -31.41184 | -64.18110 | 3494 ft | 175 kts | 332° |
| 2026-05-03 23:52 | -31.40165 | -64.18799 | 3396 ft | 164 kts | 333° |
| 2026-05-03 23:52 | -31.39219 | -64.19444 | 3218 ft | 151 kts | 333° |
| 2026-05-03 23:53 | -31.38342 | -64.20046 | 2985 ft | 142 kts | 333° |
| 2026-05-03 23:53 | -31.37480 | -64.20591 | 2630 ft | 140 kts | 338° |
| 2026-05-03 23:53 | -31.36536 | -64.20824 | 2252 ft | 138 kts | 2° |
| 2026-05-03 23:53 | -31.35604 | -64.20789 | 2048 ft | 130 kts | 2° |
| 2026-05-03 23:54 | -31.35015 | -64.20777 | 1943 ft | 126 kts | 1° |
| 2026-05-03 23:54 | -31.34158 | -64.20782 | 1814 ft | 122 kts | 1° |
| 2026-05-03 23:54 | -31.33305 | -64.20799 | 1691 ft | 123 kts | 2° |
| 2026-05-03 23:54 | -31.32431 | -64.20813 | 1575 ft | 127 kts | 1° |
| 2026-05-03 23:55 | -31.31611 | -64.20814 | 1563 ft | 91 kts | 359° |
| 2026-05-03 23:55 | -31.31153 | -64.20826 | 1572 ft | 35 kts | 359° |
| 2026-05-03 23:55 | -31.30966 | -64.20813 | 1577 ft | 13 kts | 11° |
| 2026-05-03 23:55 | -31.30940 | -64.20823 | 1578 ft | 2 kts | 306° |
| 2026-05-03 23:56 | -31.30947 | -64.20836 | 1578 ft | 5 kts | 228° |
| 2026-05-03 23:56 | -31.31046 | -64.20847 | 1575 ft | 21 kts | 182° |
| 2026-05-03 23:56 | -31.31314 | -64.20846 | 1568 ft | 50 kts | 179° |
| 2026-05-03 23:56 | -31.31457 | -64.20901 | 1567 ft | 9 kts | 252° |
| 2026-05-03 23:57 | -31.31461 | -64.20937 | 1568 ft | 0 kts | 266° |